PTHLV NZAA-NZQN
Flight info
| Callsign | PTHLV |
|---|---|
| Flight time | N/A |
| Altitude | 38000 |
| Route | KAPAI Y320 DOVOT |
| Aircraft | A319/M-SDE3FGHIRWY/LB1 |
Departure
| Time | 2026-04-30 22:55 |
|---|---|
| Airport | Auckland International Airport (NZAA) |
Arrival
| Time | N/A |
|---|---|
| Airport | Queenstown Airport (NZQN) |
| Time | Latitude | Longitude | Altitude | Speed | Heading |
|---|---|---|---|---|---|
| 2026-04-30 21:53 | -37.00667 | 174.78171 | 36 ft | 0 kts | 116° |
| 2026-04-30 21:54 | -37.00667 | 174.78170 | 36 ft | 0 kts | 116° |
| 2026-04-30 22:23 | -37.00666 | 174.78167 | 36 ft | 2 kts | 116° |
| 2026-04-30 22:23 | -37.00657 | 174.78146 | 36 ft | 3 kts | 121° |
| 2026-04-30 22:24 | -37.00646 | 174.78125 | 36 ft | 3 kts | 124° |
| 2026-04-30 22:24 | -37.00635 | 174.78104 | 36 ft | 3 kts | 122° |
| 2026-04-30 22:24 | -37.00625 | 174.78082 | 36 ft | 3 kts | 113° |
| 2026-04-30 22:24 | -37.00617 | 174.78059 | 35 ft | 3 kts | 112° |
| 2026-04-30 22:25 | -37.00611 | 174.78041 | 34 ft | 1 kts | 120° |
| 2026-04-30 22:25 | -37.00610 | 174.78040 | 34 ft | 1 kts | 120° |
| 2026-04-30 22:30 | -37.00611 | 174.78041 | 34 ft | 0 kts | 120° |
| 2026-04-30 22:31 | -37.00637 | 174.78054 | 35 ft | 2 kts | 198° |
| 2026-04-30 22:32 | -37.00683 | 174.78038 | 34 ft | 3 kts | 197° |
| 2026-04-30 22:32 | -37.00725 | 174.78018 | 35 ft | 4 kts | 205° |
| 2026-04-30 22:33 | -37.00800 | 174.78012 | 36 ft | 4 kts | 161° |
| 2026-04-30 22:33 | -37.00855 | 174.78036 | 36 ft | 5 kts | 161° |
| 2026-04-30 22:34 | -37.00968 | 174.78085 | 36 ft | 7 kts | 159° |
| 2026-04-30 22:35 | -37.01062 | 174.78073 | 36 ft | 10 kts | 237° |
| 2026-04-30 22:36 | -37.01215 | 174.77635 | 36 ft | 11 kts | 191° |
| 2026-04-30 22:36 | -37.01295 | 174.77594 | 36 ft | 15 kts | 251° |
| 2026-04-30 22:37 | -37.01327 | 174.77483 | 35 ft | 0 kts | 252° |
| 2026-04-30 22:37 | -37.01328 | 174.77480 | 35 ft | 2 kts | 252° |
| 2026-04-30 22:37 | -37.01332 | 174.77463 | 35 ft | 0 kts | 251° |
| 2026-04-30 22:45 | -37.01405 | 174.77200 | 36 ft | 15 kts | 250° |
| 2026-04-30 22:45 | -37.01435 | 174.77124 | 35 ft | 0 kts | 222° |
| 2026-04-30 22:48 | -37.01440 | 174.77119 | 35 ft | 2 kts | 217° |
| 2026-04-30 22:49 | -37.01498 | 174.77097 | 35 ft | 0 kts | 190° |
| 2026-04-30 22:50 | -37.01504 | 174.77096 | 34 ft | 0 kts | 190° |
| 2026-04-30 22:51 | -37.01530 | 174.77091 | 32 ft | 8 kts | 188° |
| 2026-04-30 22:51 | -37.01605 | 174.77181 | 31 ft | 0 kts | 68° |
| 2026-04-30 22:52 | -37.01601 | 174.77192 | 31 ft | 1 kts | 70° |
| 2026-04-30 22:53 | -37.01601 | 174.77193 | 32 ft | 0 kts | 70° |
| 2026-04-30 22:54 | -37.01585 | 174.77248 | 32 ft | 34 kts | 70° |
| 2026-04-30 22:55 | -37.00712 | 174.80511 | 816 ft | 180 kts | 73° |
| 2026-04-30 22:55 | -37.00445 | 174.83606 | 2780 ft | 179 kts | 126° |
| 2026-04-30 22:56 | -37.02700 | 174.84368 | 3930 ft | 181 kts | 186° |
| 2026-04-30 22:56 | -37.06413 | 174.83881 | 4011 ft | 177 kts | 175° |
| 2026-04-30 22:57 | -37.08677 | 174.84892 | 4024 ft | 176 kts | 151° |
| 2026-04-30 22:57 | -37.10840 | 174.86297 | 4010 ft | 175 kts | 153° |
| 2026-04-30 22:58 | -37.13077 | 174.87724 | 4154 ft | 207 kts | 152° |
| 2026-04-30 22:59 | -37.17352 | 174.91028 | 4882 ft | 251 kts | 147° |
| 2026-04-30 22:59 | -37.21855 | 174.94348 | 5004 ft | 251 kts | 152° |